createdAt,value
2022-08-25T00:02:55.016Z,100.00
2022-08-25T00:06:01.615Z,100.00
2022-08-25T00:09:06.348Z,100.00
2022-08-25T00:12:09.266Z,100.00
2022-08-25T00:15:13.152Z,100.00
2022-08-25T00:18:20.041Z,100.00
2022-08-25T00:21:23.283Z,100.00
2022-08-25T00:24:27.465Z,100.00
2022-08-25T00:27:30.542Z,100.00
2022-08-25T00:30:34.557Z,100.00
2022-08-25T00:33:37.806Z,100.00
2022-08-25T00:36:40.332Z,100.00
2022-08-25T00:39:45.573Z,100.00
2022-08-25T00:42:51.236Z,100.00
2022-08-25T00:45:55.221Z,100.00
2022-08-25T00:49:01.123Z,100.00
2022-08-25T00:52:05.125Z,100.00
2022-08-25T00:55:11.106Z,100.00
2022-08-25T00:58:19.552Z,100.00
2022-08-25T01:01:22.069Z,100.00
2022-08-25T01:04:33.676Z,100.00
2022-08-25T01:07:38.857Z,100.00
2022-08-25T01:10:48.489Z,100.00
2022-08-25T01:14:01.557Z,100.00
2022-08-25T01:17:06.633Z,100.00
2022-08-25T01:20:12.502Z,100.00
2022-08-25T01:23:14.969Z,100.00
2022-08-25T01:26:30.353Z,100.00
2022-08-25T01:29:35.190Z,100.00
2022-08-25T01:32:43.111Z,100.00
2022-08-25T01:35:49.318Z,100.00
2022-08-25T01:38:54.402Z,100.00
2022-08-25T01:42:07.981Z,100.00
2022-08-25T01:45:12.004Z,100.00
2022-08-25T01:48:17.303Z,100.00
2022-08-25T01:51:21.721Z,100.00
2022-08-25T01:54:24.508Z,100.00
2022-08-25T01:57:37.118Z,100.00
2022-08-25T02:00:49.432Z,100.00
2022-08-25T02:04:00.873Z,100.00
2022-08-25T02:07:10.889Z,100.00
2022-08-25T02:10:14.775Z,100.00
2022-08-25T02:13:18.099Z,100.00
2022-08-25T02:16:22.661Z,100.00
2022-08-25T02:19:35.997Z,100.00
2022-08-25T02:22:40.245Z,100.00
2022-08-25T02:25:51.365Z,100.00
2022-08-25T02:28:59.604Z,100.00
2022-08-25T02:32:04.616Z,100.00
2022-08-25T02:35:09.658Z,100.00
2022-08-25T02:38:11.903Z,100.00
2022-08-25T02:41:20.625Z,100.00
2022-08-25T02:44:33.255Z,100.00
2022-08-25T02:47:39.387Z,100.00
2022-08-25T02:50:48.023Z,100.00
2022-08-25T02:53:53.794Z,100.00
2022-08-25T02:56:56.375Z,100.00
2022-08-25T03:00:00.924Z,100.00
2022-08-25T03:03:04.527Z,100.00
2022-08-25T03:06:08.655Z,100.00
2022-08-25T03:09:12.913Z,100.00
2022-08-25T03:12:19.789Z,100.00
2022-08-25T03:15:22.387Z,100.00
2022-08-25T03:18:25.075Z,100.00
2022-08-25T03:21:30.889Z,100.00
2022-08-25T03:24:34.034Z,100.00
2022-08-25T03:27:36.885Z,100.00
2022-08-25T03:30:39.813Z,100.00
2022-08-25T03:33:44.929Z,100.00
2022-08-25T03:36:50.857Z,100.00
2022-08-25T03:39:55.131Z,100.00
2022-08-25T03:42:58.118Z,100.00
2022-08-25T03:46:01.891Z,100.00
2022-08-25T03:49:06.867Z,100.00
2022-08-25T03:52:09.878Z,100.00
2022-08-25T03:55:16.727Z,100.00
2022-08-25T03:58:21.522Z,100.00
2022-08-25T04:01:29.179Z,100.00
2022-08-25T04:04:35.820Z,100.00
2022-08-25T04:07:39.130Z,100.00
2022-08-25T04:10:55.728Z,100.00
2022-08-25T04:14:13.031Z,100.00
2022-08-25T04:17:20.026Z,100.00
2022-08-25T04:20:24.040Z,100.00
2022-08-25T04:23:30.635Z,100.00
2022-08-25T04:26:37.507Z,100.00
2022-08-25T04:29:41.173Z,100.00
2022-08-25T04:32:46.214Z,100.00
2022-08-25T04:35:53.741Z,100.00
2022-08-25T04:38:57.549Z,100.00
2022-08-25T04:42:01.333Z,100.00
2022-08-25T04:45:05.786Z,100.00
2022-08-25T04:51:48.633Z,100.00
2022-08-25T04:54:53.980Z,100.00
2022-08-25T04:58:16.488Z,100.00
2022-08-25T05:04:57.431Z,100.00
2022-08-25T05:08:01.926Z,100.00
2022-08-25T05:11:13.833Z,100.00
2022-08-25T06:12:56.754Z,99.40
2022-08-25T06:16:08.865Z,98.48
2022-08-25T06:19:17.040Z,96.88
2022-08-25T06:22:57.489Z,97.60
2022-08-25T06:26:00.145Z,95.78
2022-08-25T06:29:12.274Z,93.72
2022-08-25T06:32:27.039Z,92.21
2022-08-25T06:35:29.477Z,90.43
2022-08-25T06:38:37.841Z,90.77
2022-08-25T06:41:41.206Z,89.02
2022-08-25T06:44:45.442Z,88.72
2022-08-25T06:47:47.830Z,90.64
2022-08-25T06:51:04.856Z,86.04
2022-08-25T06:54:33.776Z,86.97
2022-08-25T06:57:39.818Z,85.45
2022-08-25T07:00:50.512Z,84.09
2022-08-25T07:04:00.172Z,84.57
2022-08-25T07:07:04.194Z,76.94
2022-08-25T07:10:10.613Z,63.55
2022-08-25T07:13:16.896Z,53.36
2022-08-25T07:16:23.094Z,49.41
2022-08-25T07:23:33.311Z,42.88
2022-08-25T07:26:38.742Z,36.77
2022-08-25T07:29:42.708Z,34.67
2022-08-25T07:32:46.342Z,35.78
2022-08-25T07:35:54.341Z,36.74
2022-08-25T07:38:57.730Z,34.24
2022-08-25T07:42:00.528Z,36.23
2022-08-25T07:45:05.967Z,34.64
2022-08-25T07:48:13.709Z,33.15
2022-08-25T07:51:15.994Z,32.96
2022-08-25T07:54:19.101Z,34.75
2022-08-25T07:57:23.259Z,35.49
2022-08-25T08:00:28.097Z,33.11
2022-08-25T08:03:45.182Z,33.29
2022-08-25T08:06:53.662Z,37.82
2022-08-25T08:10:25.705Z,42.25
2022-08-25T08:13:20.928Z,46.41
2022-08-25T08:16:27.281Z,49.01
2022-08-25T08:19:29.729Z,55.09
2022-08-25T08:22:32.253Z,54.14
2022-08-25T08:25:34.636Z,54.94
2022-08-25T08:28:37.423Z,56.17
2022-08-25T08:31:40.450Z,55.46
2022-08-25T08:34:51.120Z,55.54
2022-08-25T08:37:55.084Z,55.96
2022-08-25T08:41:33.883Z,56.56
2022-08-25T08:44:45.955Z,56.00
2022-08-25T08:47:59.489Z,54.73
2022-08-25T08:51:14.942Z,55.85
2022-08-25T08:54:23.035Z,56.24
2022-08-25T08:57:27.293Z,56.83
2022-08-25T09:00:32.330Z,57.09
2022-08-25T09:03:35.005Z,55.32
2022-08-25T09:06:41.657Z,55.67
2022-08-25T09:09:46.513Z,55.16
2022-08-25T09:13:00.971Z,55.65
2022-08-25T10:55:15.385Z,48.05
2022-08-25T10:58:19.496Z,46.91
2022-08-25T11:01:48.312Z,44.64
2022-08-25T11:05:02.240Z,45.98
2022-08-25T11:08:06.114Z,45.37
2022-08-25T11:11:09.720Z,46.46
2022-08-25T11:14:20.562Z,45.49
2022-08-25T11:17:47.299Z,44.70
2022-08-25T11:21:13.056Z,44.73
2022-08-25T11:24:33.971Z,43.54
2022-08-25T11:27:49.218Z,44.64
2022-08-25T11:30:53.727Z,46.02
2022-08-25T11:33:58.470Z,43.37
2022-08-25T11:37:11.241Z,42.78
2022-08-25T11:40:31.715Z,42.64
2022-08-25T11:43:55.525Z,42.85
2022-08-25T11:47:01.886Z,42.98
2022-08-25T11:50:24.135Z,42.34
2022-08-25T11:53:42.356Z,42.50
2022-08-25T11:56:57.641Z,44.75
2022-08-25T12:00:08.375Z,42.93
2022-08-25T12:03:31.807Z,43.80
2022-08-25T12:06:34.626Z,44.55
2022-08-25T12:09:37.286Z,41.79
2022-08-25T12:12:46.514Z,41.55
2022-08-25T12:15:49.665Z,40.11
2022-08-25T12:18:54.339Z,38.61
2022-08-25T12:22:04.051Z,38.48
2022-08-25T12:25:11.682Z,39.93
2022-08-25T12:28:28.606Z,41.53
2022-08-25T12:31:47.355Z,40.95
2022-08-25T12:34:50.325Z,40.34
2022-08-25T12:38:05.650Z,40.93
2022-08-25T12:41:08.719Z,41.77
2022-08-25T12:44:31.494Z,40.23
2022-08-25T12:47:35.087Z,41.44
2022-08-25T12:50:43.289Z,42.20
2022-08-25T12:53:52.186Z,41.76
2022-08-25T12:57:00.076Z,42.01
2022-08-25T13:00:22.955Z,42.18
2022-08-25T13:03:47.289Z,42.98
2022-08-25T13:06:53.445Z,43.24
2022-08-25T13:10:06.184Z,40.23
2022-08-25T13:13:32.550Z,41.83
2022-08-25T13:16:35.394Z,42.94
2022-08-25T13:19:38.503Z,40.53
2022-08-25T13:22:44.348Z,41.07
2022-08-25T13:25:51.450Z,40.65
2022-08-25T13:29:03.548Z,42.02
2022-08-25T13:32:14.478Z,41.18
2022-08-25T13:35:24.658Z,41.64
2022-08-25T13:38:28.081Z,41.43
2022-08-25T13:41:34.003Z,42.62
2022-08-25T13:44:39.507Z,41.54
2022-08-25T13:47:45.234Z,41.15
2022-08-25T13:50:51.693Z,41.64
2022-08-25T13:54:00.326Z,41.41
2022-08-25T13:57:30.246Z,42.47
2022-08-25T14:00:35.732Z,44.88
2022-08-25T14:03:41.080Z,43.20
2022-08-25T14:06:48.419Z,44.92
2022-08-25T14:09:52.207Z,43.58
2022-08-25T14:13:09.705Z,43.03
2022-08-25T14:16:15.653Z,43.76
2022-08-25T14:19:21.702Z,43.81
2022-08-25T14:22:25.041Z,43.88
2022-08-25T14:25:28.431Z,43.47
2022-08-25T14:28:33.926Z,42.94
2022-08-25T14:31:40.500Z,42.67
2022-08-25T14:34:43.420Z,44.03
2022-08-25T14:37:45.765Z,43.25
2022-08-25T14:40:48.303Z,42.51
2022-08-25T14:43:51.096Z,43.57
2022-08-25T14:46:54.602Z,43.82
2022-08-25T14:49:57.261Z,44.03
2022-08-25T14:53:00.575Z,44.51
2022-08-25T14:56:09.194Z,43.32
2022-08-25T14:59:13.580Z,44.51
2022-08-25T15:02:19.968Z,43.89
2022-08-25T15:05:28.445Z,44.84
2022-08-25T15:08:49.138Z,44.77
2022-08-25T15:11:52.987Z,43.44
2022-08-25T15:14:57.372Z,44.13
2022-08-25T15:18:01.321Z,44.51
2022-08-25T15:21:04.052Z,44.95
2022-08-25T15:24:09.135Z,44.96
2022-08-25T15:27:13.205Z,45.38
2022-08-25T15:30:16.305Z,46.04
2022-08-25T15:33:20.013Z,45.69
2022-08-25T15:36:25.173Z,44.97
2022-08-25T15:39:28.353Z,45.22
2022-08-25T15:42:30.970Z,47.14
2022-08-25T15:45:33.713Z,46.34
2022-08-25T15:48:37.331Z,46.48
2022-08-25T15:51:39.499Z,47.51
2022-08-25T15:54:42.054Z,48.46
2022-08-25T15:57:49.668Z,47.62
2022-08-25T16:00:56.562Z,47.46
2022-08-25T16:03:59.877Z,47.46
2022-08-25T16:07:02.449Z,46.82
2022-08-25T16:10:07.011Z,46.67
2022-08-25T16:13:10.586Z,46.85
2022-08-25T16:16:14.546Z,47.82
2022-08-25T16:19:18.095Z,49.15
2022-08-25T16:22:21.328Z,49.96
2022-08-25T16:25:24.084Z,50.20
2022-08-25T16:28:26.672Z,51.64
2022-08-25T16:31:29.880Z,51.74
2022-08-25T16:34:34.596Z,51.92
2022-08-25T16:37:37.591Z,52.40
2022-08-25T16:40:42.248Z,52.72
2022-08-25T16:43:46.960Z,53.40
2022-08-25T16:46:49.850Z,53.58
2022-08-25T16:49:53.441Z,54.25
2022-08-25T16:53:33.570Z,54.81
2022-08-25T16:56:38.226Z,54.80
2022-08-25T16:59:43.683Z,55.06
2022-08-25T17:02:48.931Z,55.65
2022-08-25T17:05:53.446Z,56.55
2022-08-25T17:08:56.961Z,57.25
2022-08-25T17:12:00.629Z,57.99
2022-08-25T17:15:06.161Z,58.20
2022-08-25T17:18:08.910Z,58.61
2022-08-25T17:21:16.142Z,59.70
2022-08-25T17:24:29.689Z,59.38
2022-08-25T17:27:34.863Z,61.25
2022-08-25T17:30:39.408Z,60.62
2022-08-25T17:33:42.900Z,61.17
2022-08-25T17:36:45.849Z,61.25
2022-08-25T17:39:50.124Z,61.76
2022-08-25T17:42:59.516Z,64.02
2022-08-25T17:46:02.308Z,63.36
2022-08-25T17:49:06.609Z,64.50
2022-08-25T17:52:08.798Z,64.99
2022-08-25T17:55:14.077Z,65.22
2022-08-25T17:58:19.568Z,65.86
2022-08-25T18:01:27.784Z,66.94
2022-08-25T18:04:30.086Z,67.14
2022-08-25T18:07:32.838Z,67.29
2022-08-25T18:10:36.645Z,67.92
2022-08-25T18:13:40.476Z,68.44
2022-08-25T18:16:44.650Z,68.87
2022-08-25T18:19:48.748Z,69.26
2022-08-25T18:22:53.114Z,69.86
2022-08-25T18:26:00.927Z,69.67
2022-08-25T18:29:06.333Z,71.44
2022-08-25T18:32:13.747Z,70.43
2022-08-25T18:35:16.732Z,69.46
2022-08-25T18:38:42.883Z,68.97
2022-08-25T18:41:45.663Z,69.14
2022-08-25T18:44:50.237Z,70.36
2022-08-25T18:47:58.603Z,70.31
2022-08-25T18:51:02.631Z,70.74
2022-08-25T18:54:05.812Z,69.64
2022-08-25T18:57:08.966Z,70.47
2022-08-25T19:00:13.213Z,71.14
2022-08-25T19:03:16.380Z,70.05
2022-08-25T19:06:19.841Z,70.60
2022-08-25T19:09:24.539Z,69.71
2022-08-25T19:12:27.086Z,70.48
2022-08-25T19:15:30.571Z,69.38
2022-08-25T19:18:33.427Z,69.33
2022-08-25T19:21:38.565Z,69.68
2022-08-25T19:24:41.238Z,69.00
2022-08-25T19:27:44.310Z,69.76
2022-08-25T19:30:50.014Z,69.40
2022-08-25T19:33:56.157Z,70.95
2022-08-25T19:37:00.997Z,69.49
2022-08-25T19:40:05.236Z,69.72
2022-08-25T19:43:08.708Z,68.82
2022-08-25T19:46:10.779Z,69.79
2022-08-25T19:49:15.394Z,69.43
2022-08-25T19:52:26.790Z,69.51
2022-08-25T19:55:30.172Z,71.68
2022-08-25T19:58:32.994Z,70.33
2022-08-25T20:01:39.027Z,70.48
2022-08-25T20:04:43.836Z,69.82
2022-08-25T20:07:53.785Z,68.83
2022-08-25T20:11:01.896Z,68.75
2022-08-25T20:14:12.536Z,69.45
2022-08-25T20:17:24.685Z,69.60
2022-08-25T20:20:32.387Z,70.51
2022-08-25T20:23:56.739Z,70.41
2022-08-25T20:27:00.680Z,69.43
2022-08-25T20:30:05.088Z,70.13
2022-08-25T20:33:09.340Z,71.58
2022-08-25T20:36:14.643Z,70.53
2022-08-25T20:39:18.463Z,70.34
2022-08-25T20:42:21.354Z,71.18
2022-08-25T20:45:24.424Z,71.05
2022-08-25T20:48:29.677Z,71.04
2022-08-25T20:51:32.461Z,71.79
2022-08-25T20:54:38.346Z,72.85
2022-08-25T20:57:41.037Z,72.34
2022-08-25T21:00:43.998Z,73.28
2022-08-25T21:03:46.908Z,73.45
2022-08-25T21:06:50.887Z,73.42
2022-08-25T21:09:53.486Z,73.90
2022-08-25T21:12:56.578Z,74.18
2022-08-25T21:16:01.210Z,74.64
2022-08-25T21:19:05.831Z,75.77
2022-08-25T21:22:11.375Z,75.91
2022-08-25T21:25:14.274Z,76.71
2022-08-25T21:28:16.443Z,75.96
2022-08-25T21:31:19.883Z,76.08
2022-08-25T21:34:22.473Z,76.15
2022-08-25T21:37:27.076Z,76.30
2022-08-25T21:40:29.222Z,75.75
2022-08-25T21:43:31.494Z,75.84
2022-08-25T21:46:34.613Z,75.54
2022-08-25T21:49:39.636Z,76.30
2022-08-25T21:52:42.960Z,75.43
2022-08-25T21:55:46.023Z,74.56
2022-08-25T21:58:49.124Z,74.61
2022-08-25T22:01:56.076Z,74.23
2022-08-25T22:04:59.096Z,74.50
2022-08-25T22:08:01.273Z,74.76
2022-08-25T22:11:05.512Z,75.57
2022-08-25T22:14:12.925Z,75.05
2022-08-25T22:17:21.213Z,75.10
2022-08-25T22:20:26.660Z,75.77
2022-08-25T22:23:32.332Z,75.49
2022-08-25T22:26:42.233Z,75.60
2022-08-25T22:29:50.329Z,76.12
2022-08-25T22:32:53.260Z,76.26
2022-08-25T22:35:59.797Z,76.58
2022-08-25T22:39:03.089Z,78.32
2022-08-25T22:42:06.220Z,79.22
2022-08-25T22:45:09.314Z,79.18
2022-08-25T22:48:18.346Z,79.33
2022-08-25T22:51:27.153Z,79.43
2022-08-25T22:54:32.214Z,79.63
2022-08-25T22:57:36.013Z,80.48
2022-08-25T23:00:41.769Z,79.86
2022-08-25T23:03:47.694Z,81.22
2022-08-25T23:06:50.541Z,83.20
2022-08-25T23:09:53.783Z,84.25
2022-08-25T23:12:56.471Z,83.06
2022-08-25T23:16:00.131Z,83.08
2022-08-25T23:19:02.839Z,83.58
2022-08-25T23:22:13.103Z,84.02
2022-08-25T23:25:19.417Z,84.67
2022-08-25T23:28:23.158Z,85.41
2022-08-25T23:31:26.616Z,86.11
2022-08-25T23:34:33.733Z,86.54
2022-08-25T23:37:36.425Z,87.68
2022-08-25T23:40:40.360Z,87.49
2022-08-25T23:43:43.355Z,87.74
2022-08-25T23:46:47.886Z,88.50
2022-08-25T23:49:51.056Z,89.45
2022-08-25T23:52:53.632Z,90.60
2022-08-25T23:55:56.823Z,92.07
2022-08-25T23:58:59.864Z,91.99
